sensor_id;sensor_type;location;lat;lon;timestamp;pressure;altitude;pressure_sealevel;temperature;humidity
29315;BME280;16320;53.954;9.506;2023-01-06T00:02:25;101628.53;;;6.75;100.00
29315;BME280;16320;53.954;9.506;2023-01-06T00:05:30;101627.53;;;6.81;100.00
29315;BME280;16320;53.954;9.506;2023-01-06T00:08:35;101623.00;;;6.89;100.00
29315;BME280;16320;53.954;9.506;2023-01-06T00:11:40;101619.69;;;6.81;100.00
29315;BME280;16320;53.954;9.506;2023-01-06T00:14:44;101622.25;;;6.84;100.00
29315;BME280;16320;53.954;9.506;2023-01-06T00:17:50;101619.41;;;6.94;100.00
29315;BME280;16320;53.954;9.506;2023-01-06T00:20:58;101617.84;;;6.87;100.00
29315;BME280;16320;53.954;9.506;2023-01-06T00:24:02;101610.81;;;6.89;100.00
29315;BME280;16320;53.954;9.506;2023-01-06T00:27:07;101619.47;;;6.91;100.00
29315;BME280;16320;53.954;9.506;2023-01-06T00:30:12;101606.38;;;6.93;100.00
29315;BME280;16320;53.954;9.506;2023-01-06T00:33:17;101604.59;;;6.95;100.00
29315;BME280;16320;53.954;9.506;2023-01-06T00:36:21;101603.66;;;6.99;100.00
29315;BME280;16320;53.954;9.506;2023-01-06T00:39:26;101606.13;;;7.05;100.00
29315;BME280;16320;53.954;9.506;2023-01-06T00:42:30;101602.59;;;7.06;100.00
29315;BME280;16320;53.954;9.506;2023-01-06T00:45:34;101607.03;;;7.03;100.00
29315;BME280;16320;53.954;9.506;2023-01-06T00:48:38;101604.22;;;7.12;100.00
29315;BME280;16320;53.954;9.506;2023-01-06T00:51:50;101596.28;;;7.17;100.00
29315;BME280;16320;53.954;9.506;2023-01-06T00:54:54;101589.31;;;7.15;100.00
29315;BME280;16320;53.954;9.506;2023-01-06T00:57:58;101586.66;;;7.19;100.00
29315;BME280;16320;53.954;9.506;2023-01-06T01:01:08;101579.63;;;7.21;100.00
29315;BME280;16320;53.954;9.506;2023-01-06T01:04:14;101582.31;;;7.18;100.00
29315;BME280;16320;53.954;9.506;2023-01-06T01:07:19;101581.34;;;7.22;100.00
29315;BME280;16320;53.954;9.506;2023-01-06T01:10:23;101583.03;;;7.23;100.00
29315;BME280;16320;53.954;9.506;2023-01-06T01:13:27;101582.19;;;7.22;100.00
29315;BME280;16320;53.954;9.506;2023-01-06T01:16:32;101577.81;;;7.23;100.00
29315;BME280;16320;53.954;9.506;2023-01-06T01:19:37;101580.38;;;7.26;100.00
29315;BME280;16320;53.954;9.506;2023-01-06T01:22:42;101568.78;;;7.38;100.00
29315;BME280;16320;53.954;9.506;2023-01-06T01:25:46;101573.22;;;7.32;100.00
29315;BME280;16320;53.954;9.506;2023-01-06T01:28:51;101570.75;;;7.28;100.00
29315;BME280;16320;53.954;9.506;2023-01-06T01:31:55;101585.56;;;7.27;100.00
29315;BME280;16320;53.954;9.506;2023-01-06T01:34:59;101581.94;;;7.33;100.00
29315;BME280;16320;53.954;9.506;2023-01-06T01:38:04;101584.56;;;7.33;100.00
29315;BME280;16320;53.954;9.506;2023-01-06T01:41:18;101572.38;;;7.32;100.00
29315;BME280;16320;53.954;9.506;2023-01-06T01:44:57;101575.81;;;7.34;100.00
29315;BME280;16320;53.954;9.506;2023-01-06T01:48:05;101579.34;;;7.33;100.00
29315;BME280;16320;53.954;9.506;2023-01-06T01:51:18;101582.69;;;7.38;100.00
29315;BME280;16320;53.954;9.506;2023-01-06T01:54:28;101575.66;;;7.40;100.00
29315;BME280;16320;53.954;9.506;2023-01-06T01:57:49;101582.56;;;7.44;100.00
29315;BME280;16320;53.954;9.506;2023-01-06T02:00:55;101577.41;;;7.41;100.00
29315;BME280;16320;53.954;9.506;2023-01-06T02:04:00;101584.25;;;7.45;100.00
29315;BME280;16320;53.954;9.506;2023-01-06T02:07:05;101577.31;;;7.44;100.00
29315;BME280;16320;53.954;9.506;2023-01-06T02:10:20;101565.13;;;7.43;100.00
29315;BME280;16320;53.954;9.506;2023-01-06T02:13:25;101570.38;;;7.43;100.00
29315;BME280;16320;53.954;9.506;2023-01-06T02:16:41;101573.78;;;7.45;100.00
29315;BME280;16320;53.954;9.506;2023-01-06T02:32:05;101547.50;;;7.51;100.00
29315;BME280;16320;53.954;9.506;2023-01-06T02:34:54;101542.19;;;7.55;100.00
29315;BME280;16320;53.954;9.506;2023-01-06T02:38:33;101540.31;;;7.60;100.00
29315;BME280;16320;53.954;9.506;2023-01-06T02:41:47;101529.84;;;7.60;100.00
29315;BME280;16320;53.954;9.506;2023-01-06T02:45:32;101532.28;;;7.67;100.00
29315;BME280;16320;53.954;9.506;2023-01-06T02:49:09;101531.50;;;7.64;100.00
29315;BME280;16320;53.954;9.506;2023-01-06T02:53:09;101532.22;;;7.69;100.00
29315;BME280;16320;53.954;9.506;2023-01-06T02:56:22;101525.31;;;7.66;100.00
29315;BME280;16320;53.954;9.506;2023-01-06T02:59:36;101525.25;;;7.69;100.00
29315;BME280;16320;53.954;9.506;2023-01-06T03:02:48;101520.09;;;7.66;100.00
29315;BME280;16320;53.954;9.506;2023-01-06T03:06:00;101513.94;;;7.69;100.00
29315;BME280;16320;53.954;9.506;2023-01-06T03:09:06;101507.75;;;7.72;100.00
29315;BME280;16320;53.954;9.506;2023-01-06T03:12:23;101497.19;;;7.75;100.00
29315;BME280;16320;53.954;9.506;2023-01-06T03:15:28;101498.06;;;7.75;100.00
29315;BME280;16320;53.954;9.506;2023-01-06T03:18:33;101496.28;;;7.77;100.00
29315;BME280;16320;53.954;9.506;2023-01-06T03:21:42;101495.38;;;7.78;100.00
29315;BME280;16320;53.954;9.506;2023-01-06T03:24:47;101492.66;;;7.81;100.00
29315;BME280;16320;53.954;9.506;2023-01-06T03:27:52;101490.84;;;7.85;100.00
29315;BME280;16320;53.954;9.506;2023-01-06T03:31:14;101484.75;;;7.83;100.00
29315;BME280;16320;53.954;9.506;2023-01-06T03:38:13;101484.50;;;7.92;100.00
29315;BME280;16320;53.954;9.506;2023-01-06T03:41:40;101470.38;;;7.99;100.00
29315;BME280;16320;53.954;9.506;2023-01-06T03:52:44;101465.81;;;8.06;100.00
29315;BME280;16320;53.954;9.506;2023-01-06T03:56:04;101458.78;;;8.08;100.00
29315;BME280;16320;53.954;9.506;2023-01-06T03:59:16;101446.59;;;8.07;100.00
29315;BME280;16320;53.954;9.506;2023-01-06T04:02:22;101444.72;;;8.11;100.00
29315;BME280;16320;53.954;9.506;2023-01-06T04:05:28;101461.13;;;8.17;100.00
29315;BME280;16320;53.954;9.506;2023-01-06T04:08:32;101458.38;;;8.20;100.00
29315;BME280;16320;53.954;9.506;2023-01-06T04:11:37;101451.38;;;8.22;100.00
29315;BME280;16320;53.954;9.506;2023-01-06T04:15:00;101445.16;;;8.25;100.00
29315;BME280;16320;53.954;9.506;2023-01-06T04:18:05;101452.97;;;8.27;100.00
29315;BME280;16320;53.954;9.506;2023-01-06T04:21:09;101451.28;;;8.25;100.00
29315;BME280;16320;53.954;9.506;2023-01-06T04:24:14;101439.09;;;8.24;100.00
29315;BME280;16320;53.954;9.506;2023-01-06T04:27:18;101431.94;;;8.30;100.00
29315;BME280;16320;53.954;9.506;2023-01-06T04:30:23;101427.63;;;8.29;100.00
29315;BME280;16320;53.954;9.506;2023-01-06T04:33:27;101437.19;;;8.30;100.00
29315;BME280;16320;53.954;9.506;2023-01-06T04:36:32;101429.34;;;8.30;100.00
29315;BME280;16320;53.954;9.506;2023-01-06T04:39:36;101418.88;;;8.30;100.00
29315;BME280;16320;53.954;9.506;2023-01-06T04:42:40;101414.44;;;8.32;100.00
29315;BME280;16320;53.954;9.506;2023-01-06T04:46:04;101402.06;;;8.37;100.00
29315;BME280;16320;53.954;9.506;2023-01-06T04:49:08;101393.31;;;8.38;100.00
29315;BME280;16320;53.954;9.506;2023-01-06T04:52:12;101394.13;;;8.40;100.00
29315;BME280;16320;53.954;9.506;2023-01-06T04:55:17;101394.13;;;8.40;100.00
29315;BME280;16320;53.954;9.506;2023-01-06T04:58:21;101388.91;;;8.40;100.00
29315;BME280;16320;53.954;9.506;2023-01-06T05:01:26;101379.97;;;8.47;100.00
29315;BME280;16320;53.954;9.506;2023-01-06T05:04:31;101376.41;;;8.50;100.00
29315;BME280;16320;53.954;9.506;2023-01-06T05:07:53;101366.06;;;8.45;100.00
29315;BME280;16320;53.954;9.506;2023-01-06T05:11:00;101365.03;;;8.49;100.00
29315;BME280;16320;53.954;9.506;2023-01-06T05:14:04;101358.00;;;8.51;100.00
29315;BME280;16320;53.954;9.506;2023-01-06T05:17:08;101359.63;;;8.55;100.00
29315;BME280;16320;53.954;9.506;2023-01-06T05:20:13;101357.88;;;8.54;100.00
29315;BME280;16320;53.954;9.506;2023-01-06T05:23:18;101361.34;;;8.56;100.00
29315;BME280;16320;53.954;9.506;2023-01-06T05:26:25;101357.94;;;8.53;100.00
29315;BME280;16320;53.954;9.506;2023-01-06T05:29:30;101368.25;;;8.57;100.00
29315;BME280;16320;53.954;9.506;2023-01-06T05:32:34;101368.38;;;8.54;100.00
29315;BME280;16320;53.954;9.506;2023-01-06T05:35:39;101366.53;;;8.58;100.00
29315;BME280;16320;53.954;9.506;2023-01-06T05:38:49;101368.16;;;8.60;100.00
29315;BME280;16320;53.954;9.506;2023-01-06T05:41:54;101363.03;;;8.57;100.00
29315;BME280;16320;53.954;9.506;2023-01-06T05:44:58;101357.78;;;8.57;100.00
29315;BME280;16320;53.954;9.506;2023-01-06T05:48:03;101357.78;;;8.57;100.00
29315;BME280;16320;53.954;9.506;2023-01-06T05:51:10;101356.00;;;8.59;100.00
29315;BME280;16320;53.954;9.506;2023-01-06T05:54:15;101352.47;;;8.60;100.00
29315;BME280;16320;53.954;9.506;2023-01-06T05:57:19;101342.78;;;8.63;100.00
29315;BME280;16320;53.954;9.506;2023-01-06T06:00:24;101335.84;;;8.61;100.00
29315;BME280;16320;53.954;9.506;2023-01-06T06:03:30;101333.97;;;8.65;100.00
29315;BME280;16320;53.954;9.506;2023-01-06T06:06:34;101338.25;;;8.68;100.00
29315;BME280;16320;53.954;9.506;2023-01-06T06:09:38;101330.50;;;8.65;100.00
29315;BME280;16320;53.954;9.506;2023-01-06T06:12:43;101338.31;;;8.66;100.00
29315;BME280;16320;53.954;9.506;2023-01-06T06:15:47;101327.00;;;8.64;100.00
29315;BME280;16320;53.954;9.506;2023-01-06T06:18:54;101331.31;;;8.67;100.00
29315;BME280;16320;53.954;9.506;2023-01-06T06:21:59;101322.66;;;8.65;100.00
29315;BME280;16320;53.954;9.506;2023-01-06T06:25:05;101327.78;;;8.68;100.00
29315;BME280;16320;53.954;9.506;2023-01-06T06:28:09;101336.59;;;8.65;100.00
29315;BME280;16320;53.954;9.506;2023-01-06T06:31:23;101332.09;;;8.69;100.00
29315;BME280;16320;53.954;9.506;2023-01-06T06:34:27;101339.13;;;8.68;100.00
29315;BME280;16320;53.954;9.506;2023-01-06T06:37:32;101327.78;;;8.68;100.00
29315;BME280;16320;53.954;9.506;2023-01-06T06:40:36;101331.22;;;8.70;100.00
29315;BME280;16320;53.954;9.506;2023-01-06T06:43:41;101333.78;;;8.71;100.00
29315;BME280;16320;53.954;9.506;2023-01-06T06:46:46;101318.97;;;8.70;100.00
29315;BME280;16320;53.954;9.506;2023-01-06T06:49:50;101317.31;;;8.68;100.00
29315;BME280;16320;53.954;9.506;2023-01-06T06:52:54;101310.25;;;8.70;100.00
29315;BME280;16320;53.954;9.506;2023-01-06T06:56:02;101299.78;;;8.70;100.00
29315;BME280;16320;53.954;9.506;2023-01-06T06:59:07;101291.81;;;8.73;100.00
29315;BME280;16320;53.954;9.506;2023-01-06T07:02:11;101294.53;;;8.70;100.00
29315;BME280;16320;53.954;9.506;2023-01-06T07:05:17;101285.88;;;8.68;100.00
29315;BME280;16320;53.954;9.506;2023-01-06T07:08:21;101285.88;;;8.68;100.00
29315;BME280;16320;53.954;9.506;2023-01-06T07:11:26;101277.22;;;8.66;100.00
29315;BME280;16320;53.954;9.506;2023-01-06T07:14:31;101274.44;;;8.70;100.00
29315;BME280;16320;53.954;9.506;2023-01-06T07:17:35;101271.03;;;8.68;100.00
29315;BME280;16320;53.954;9.506;2023-01-06T07:20:39;101257.13;;;8.66;100.00
29315;BME280;16320;53.954;9.506;2023-01-06T07:23:46;101264.94;;;8.68;100.00
29315;BME280;16320;53.954;9.506;2023-01-06T07:26:50;101258.03;;;8.65;100.00
29315;BME280;16320;53.954;9.506;2023-01-06T07:29:55;101250.03;;;8.70;100.00
29315;BME280;16320;53.954;9.506;2023-01-06T07:32:59;101241.38;;;8.68;100.00
29315;BME280;16320;53.954;9.506;2023-01-06T07:36:04;101246.66;;;8.66;100.00
29315;BME280;16320;53.954;9.506;2023-01-06T07:39:09;101249.22;;;8.68;100.00
29315;BME280;16320;53.954;9.506;2023-01-06T07:42:13;101245.78;;;8.66;100.00
29315;BME280;16320;53.954;9.506;2023-01-06T07:45:17;101236.19;;;8.66;100.00
29315;BME280;16320;53.954;9.506;2023-01-06T07:48:21;101227.44;;;8.66;100.00
29315;BME280;16320;53.954;9.506;2023-01-06T07:51:26;101236.28;;;8.63;100.00
29315;BME280;16320;53.954;9.506;2023-01-06T07:54:30;101240.53;;;8.66;100.00
29315;BME280;16320;53.954;9.506;2023-01-06T07:57:35;101240.59;;;8.64;100.00
29315;BME280;16320;53.954;9.506;2023-01-06T08:00:39;101231.91;;;8.64;100.00
29315;BME280;16320;53.954;9.506;2023-01-06T08:03:44;101244.00;;;8.68;100.00
29315;BME280;16320;53.954;9.506;2023-01-06T08:06:48;101230.06;;;8.66;100.00
29315;BME280;16320;53.954;9.506;2023-01-06T08:09:52;101230.00;;;8.67;100.00
29315;BME280;16320;53.954;9.506;2023-01-06T08:12:57;101223.94;;;8.67;100.00
29315;BME280;16320;53.954;9.506;2023-01-06T08:16:06;101223.03;;;8.68;100.00
29315;BME280;16320;53.954;9.506;2023-01-06T08:19:11;101220.56;;;8.63;100.00
29315;BME280;16320;53.954;9.506;2023-01-06T08:22:15;101224.84;;;8.66;100.00
29315;BME280;16320;53.954;9.506;2023-01-06T08:25:20;101220.56;;;8.63;100.00
29315;BME280;16320;53.954;9.506;2023-01-06T08:28:24;101213.47;;;8.67;100.00
29315;BME280;16320;53.954;9.506;2023-01-06T08:31:28;101230.19;;;8.63;100.00
29315;BME280;16320;53.954;9.506;2023-01-06T08:34:33;101219.59;;;8.66;100.00
29315;BME280;16320;53.954;9.506;2023-01-06T08:37:37;101223.16;;;8.65;100.00
29315;BME280;16320;53.954;9.506;2023-01-06T08:40:41;101226.66;;;8.64;100.00
29315;BME280;16320;53.954;9.506;2023-01-06T08:43:47;101219.50;;;8.69;100.00
29315;BME280;16320;53.954;9.506;2023-01-06T08:46:52;101218.59;;;8.70;100.00
29315;BME280;16320;53.954;9.506;2023-01-06T08:49:56;101208.22;;;8.67;100.00
29315;BME280;16320;53.954;9.506;2023-01-06T08:53:00;101209.94;;;8.68;100.00
29315;BME280;16320;53.954;9.506;2023-01-06T08:56:25;101202.34;;;8.60;100.00
29315;BME280;16320;53.954;9.506;2023-01-06T08:59:30;101207.38;;;8.66;100.00
29315;BME280;16320;53.954;9.506;2023-01-06T09:02:34;101203.88;;;8.66;100.00
29315;BME280;16320;53.954;9.506;2023-01-06T09:05:39;101204.75;;;8.66;100.00
29315;BME280;16320;53.954;9.506;2023-01-06T09:08:44;101198.44;;;8.72;100.00
29315;BME280;16320;53.954;9.506;2023-01-06T09:11:49;101230.75;;;8.71;100.00
29315;BME280;16320;53.954;9.506;2023-01-06T09:14:53;101233.50;;;8.68;100.00
29315;BME280;16320;53.954;9.506;2023-01-06T09:17:58;101235.31;;;8.66;100.00
29315;BME280;16320;53.954;9.506;2023-01-06T09:21:28;101244.84;;;8.68;100.00
29315;BME280;16320;53.954;9.506;2023-01-06T09:24:32;101262.38;;;8.66;100.00
29315;BME280;16320;53.954;9.506;2023-01-06T09:27:37;101279.56;;;8.73;100.00
29315;BME280;16320;53.954;9.506;2023-01-06T09:30:41;101273.47;;;8.73;100.00
29315;BME280;16320;53.954;9.506;2023-01-06T09:33:46;101278.81;;;8.70;100.00
29315;BME280;16320;53.954;9.506;2023-01-06T09:36:50;101297.94;;;8.72;100.00
29315;BME280;16320;53.954;9.506;2023-01-06T09:39:55;101296.38;;;8.68;100.00
29315;BME280;16320;53.954;9.506;2023-01-06T09:43:21;101290.31;;;8.66;100.00
29315;BME280;16320;53.954;9.506;2023-01-06T09:46:36;101299.97;;;8.64;100.00
29315;BME280;16320;53.954;9.506;2023-01-06T09:50:08;101326.06;;;8.67;100.00
29315;BME280;16320;53.954;9.506;2023-01-06T09:56:25;101332.78;;;8.74;100.00
29315;BME280;16320;53.954;9.506;2023-01-06T09:59:39;101345.28;;;8.66;100.00
29315;BME280;16320;53.954;9.506;2023-01-06T10:02:45;101353.38;;;8.59;100.00
29315;BME280;16320;53.954;9.506;2023-01-06T10:06:38;101352.75;;;8.51;100.00
29315;BME280;16320;53.954;9.506;2023-01-06T10:27:36;101357.09;;;7.96;100.00
29315;BME280;16320;53.954;9.506;2023-01-06T10:30:47;101357.31;;;7.90;100.00
29315;BME280;16320;53.954;9.506;2023-01-06T10:33:55;101362.56;;;8.16;100.00
29315;BME280;16320;53.954;9.506;2023-01-06T10:37:16;101371.09;;;8.23;100.00
29315;BME280;16320;53.954;9.506;2023-01-06T10:40:26;101388.81;;;8.43;100.00
29315;BME280;16320;53.954;9.506;2023-01-06T10:43:31;101376.41;;;8.50;100.00
29315;BME280;16320;53.954;9.506;2023-01-06T10:46:35;101390.66;;;8.68;100.00
29315;BME280;16320;53.954;9.506;2023-01-06T10:49:40;101396.19;;;8.58;100.00
29315;BME280;16320;53.954;9.506;2023-01-06T10:52:47;101393.88;;;8.76;100.00
29315;BME280;16320;53.954;9.506;2023-01-06T10:55:58;101397.19;;;8.81;100.00
29315;BME280;16320;53.954;9.506;2023-01-06T10:59:09;101410.38;;;8.78;100.00
29315;BME280;16320;53.954;9.506;2023-01-06T11:02:21;101402.53;;;8.78;100.00
29315;BME280;16320;53.954;9.506;2023-01-06T11:05:30;101395.47;;;8.80;100.00
29315;BME280;16320;53.954;9.506;2023-01-06T11:08:36;101397.19;;;8.81;100.00
29315;BME280;16320;53.954;9.506;2023-01-06T11:11:46;101399.31;;;8.95;100.00
29315;BME280;16320;53.954;9.506;2023-01-06T11:15:01;101398.78;;;8.85;100.00
29315;BME280;16320;53.954;9.506;2023-01-06T11:18:33;101385.84;;;8.81;100.00
29315;BME280;16320;53.954;9.506;2023-01-06T11:21:46;101358.63;;;8.85;100.00
29315;BME280;16320;53.954;9.506;2023-01-06T11:24:53;101315.38;;;8.73;100.00
29315;BME280;16320;53.954;9.506;2023-01-06T11:28:18;101270.50;;;8.58;100.00
29315;BME280;16320;53.954;9.506;2023-01-06T11:31:25;101239.28;;;8.52;100.00
29315;BME280;16320;53.954;9.506;2023-01-06T11:34:30;101217.22;;;8.33;100.00
29315;BME280;16320;53.954;9.506;2023-01-06T11:37:41;101199.75;;;8.33;100.00
29315;BME280;16320;53.954;9.506;2023-01-06T11:40:51;101177.38;;;8.24;100.00
29315;BME280;16320;53.954;9.506;2023-01-06T11:47:29;101168.94;;;8.16;100.00
29315;BME280;16320;53.954;9.506;2023-01-06T11:50:33;101159.47;;;8.12;100.00
29315;BME280;16320;53.954;9.506;2023-01-06T11:53:39;101162.22;;;8.09;100.00
29315;BME280;16320;53.954;9.506;2023-01-06T11:56:58;101165.44;;;8.17;100.00
29315;BME280;16320;53.954;9.506;2023-01-06T12:00:49;101159.13;;;8.23;100.00
29315;BME280;16320;53.954;9.506;2023-01-06T12:07:39;101160.31;;;8.14;100.00
29315;BME280;16320;53.954;9.506;2023-01-06T12:10:52;101151.53;;;8.15;100.00
29315;BME280;16320;53.954;9.506;2023-01-06T12:13:59;101137.44;;;8.19;100.00
29315;BME280;16320;53.954;9.506;2023-01-06T12:18:03;101153.97;;;8.20;100.00
29315;BME280;16320;53.954;9.506;2023-01-06T12:21:24;101163.16;;;8.32;100.00
29315;BME280;16320;53.954;9.506;2023-01-06T12:24:31;101157.88;;;8.33;100.00
29315;BME280;16320;53.954;9.506;2023-01-06T12:27:43;101147.25;;;8.38;100.00
29315;BME280;16320;53.954;9.506;2023-01-06T12:34:42;101149.69;;;8.44;100.00
29315;BME280;16320;53.954;9.506;2023-01-06T12:38:07;101140.09;;;8.43;100.00
29315;BME280;16320;53.954;9.506;2023-01-06T12:41:38;101138.19;;;8.48;100.00
29315;BME280;16320;53.954;9.506;2023-01-06T12:45:11;101127.59;;;8.51;100.00
29315;BME280;16320;53.954;9.506;2023-01-06T12:48:38;101130.28;;;8.50;100.00
29315;BME280;16320;53.954;9.506;2023-01-06T12:51:50;101136.28;;;8.53;100.00
29315;BME280;16320;53.954;9.506;2023-01-06T12:54:57;101139.47;;;8.61;100.00
29315;BME280;16320;53.954;9.506;2023-01-06T12:58:42;101149.94;;;8.61;100.00
29315;BME280;16320;53.954;9.506;2023-01-06T13:06:06;101146.28;;;8.40;100.00
29315;BME280;16320;53.954;9.506;2023-01-06T13:09:33;101152.94;;;8.25;100.00
29315;BME280;16320;53.954;9.506;2023-01-06T13:12:56;101166.28;;;8.18;100.00
29315;BME280;16320;53.954;9.506;2023-01-06T13:19:54;101173.09;;;7.97;100.00
29315;BME280;16320;53.954;9.506;2023-01-06T13:23:20;101181.94;;;7.93;100.00
29315;BME280;16320;53.954;9.506;2023-01-06T13:26:53;101174.28;;;7.88;100.00
29315;BME280;16320;53.954;9.506;2023-01-06T13:30:47;101173.72;;;7.78;100.00
29315;BME280;16320;53.954;9.506;2023-01-06T13:41:19;101193.28;;;7.65;100.00
29315;BME280;16320;53.954;9.506;2023-01-06T13:44:29;101204.63;;;7.65;100.00
29315;BME280;16320;53.954;9.506;2023-01-06T13:47:35;101213.50;;;7.60;100.00
29315;BME280;16320;53.954;9.506;2023-01-06T13:50:41;101224.88;;;7.59;100.00
29315;BME280;16320;53.954;9.506;2023-01-06T13:53:46;101230.00;;;7.62;100.00
29315;BME280;16320;53.954;9.506;2023-01-06T14:00:28;101242.16;;;7.63;100.00
29315;BME280;16320;53.954;9.506;2023-01-06T14:03:37;101251.84;;;7.61;100.00
29315;BME280;16320;53.954;9.506;2023-01-06T14:06:45;101247.59;;;7.57;100.00
29315;BME280;16320;53.954;9.506;2023-01-06T14:09:50;101249.41;;;7.55;100.00
29315;BME280;16320;53.954;9.506;2023-01-06T14:12:54;101265.84;;;7.58;100.00
29315;BME280;16320;53.954;9.506;2023-01-06T14:16:09;101260.63;;;7.58;100.00
29315;BME280;16320;53.954;9.506;2023-01-06T14:19:37;101262.34;;;7.59;100.00
29315;BME280;16320;53.954;9.506;2023-01-06T14:22:43;101265.00;;;7.58;100.00
29315;BME280;16320;53.954;9.506;2023-01-06T14:25:52;101276.16;;;7.63;100.00
29315;BME280;16320;53.954;9.506;2023-01-06T14:35:48;101273.47;;;7.66;100.00
29315;BME280;16320;53.954;9.506;2023-01-06T14:39:06;101270.03;;;7.64;100.00
29315;BME280;16320;53.954;9.506;2023-01-06T14:42:35;101274.44;;;7.62;100.00
29315;BME280;16320;53.954;9.506;2023-01-06T14:45:42;101270.09;;;7.62;100.00
29315;BME280;16320;53.954;9.506;2023-01-06T14:49:03;101276.91;;;7.66;100.00
29315;BME280;16320;53.954;9.506;2023-01-06T14:52:34;101275.28;;;7.64;100.00
29315;BME280;16320;53.954;9.506;2023-01-06T14:55:45;101273.63;;;7.60;100.00
29315;BME280;16320;53.954;9.506;2023-01-06T14:59:05;101264.16;;;7.57;100.00
29315;BME280;16320;53.954;9.506;2023-01-06T15:02:15;101264.16;;;7.57;100.00
29315;BME280;16320;53.954;9.506;2023-01-06T15:05:35;101284.38;;;7.50;100.00
29315;BME280;16320;53.954;9.506;2023-01-06T15:08:40;101268.81;;;7.47;100.00
29315;BME280;16320;53.954;9.506;2023-01-06T15:11:45;101281.03;;;7.45;100.00
29315;BME280;16320;53.954;9.506;2023-01-06T15:14:50;101284.56;;;7.44;100.00
29315;BME280;16320;53.954;9.506;2023-01-06T15:17:55;101285.28;;;7.49;100.00
29315;BME280;16320;53.954;9.506;2023-01-06T15:21:02;101286.34;;;7.42;100.00
29315;BME280;16320;53.954;9.506;2023-01-06T15:24:22;101291.66;;;7.39;100.00
29315;BME280;16320;53.954;9.506;2023-01-06T15:27:27;101301.22;;;7.40;100.00
29315;BME280;16320;53.954;9.506;2023-01-06T15:30:31;101303.09;;;7.37;100.00
29315;BME280;16320;53.954;9.506;2023-01-06T15:33:40;101304.97;;;7.31;100.00
29315;BME280;16320;53.954;9.506;2023-01-06T15:36:51;101303.28;;;7.29;100.00
29315;BME280;16320;53.954;9.506;2023-01-06T15:39:57;101307.88;;;7.21;100.00
29315;BME280;16320;53.954;9.506;2023-01-06T15:43:01;101313.19;;;7.18;100.00
29315;BME280;16320;53.954;9.506;2023-01-06T15:46:11;101305.34;;;7.18;100.00
29315;BME280;16320;53.954;9.506;2023-01-06T15:49:28;101303.72;;;7.15;100.00
29315;BME280;16320;53.954;9.506;2023-01-06T15:52:56;101314.00;;;7.20;100.00
29315;BME280;16320;53.954;9.506;2023-01-06T15:56:03;101315.03;;;7.14;100.00
29315;BME280;16320;53.954;9.506;2023-01-06T15:59:13;101305.53;;;7.11;100.00
29315;BME280;16320;53.954;9.506;2023-01-06T16:02:23;101308.25;;;7.08;100.00
29315;BME280;16320;53.954;9.506;2023-01-06T16:05:43;101308.28;;;7.07;100.00
29315;BME280;16320;53.954;9.506;2023-01-06T16:08:51;101315.25;;;7.06;100.00
29315;BME280;16320;53.954;9.506;2023-01-06T16:12:15;101323.13;;;7.05;100.00
29315;BME280;16320;53.954;9.506;2023-01-06T16:15:34;101326.56;;;7.07;100.00
29315;BME280;16320;53.954;9.506;2023-01-06T16:18:47;101327.41;;;7.07;100.00
29315;BME280;16320;53.954;9.506;2023-01-06T16:21:53;101325.69;;;7.06;100.00
29315;BME280;16320;53.954;9.506;2023-01-06T16:28:25;101325.69;;;7.06;100.00
29315;BME280;16320;53.954;9.506;2023-01-06T16:31:38;101317.13;;;7.01;100.00
29315;BME280;16320;53.954;9.506;2023-01-06T16:34:49;101327.66;;;6.98;100.00
29315;BME280;16320;53.954;9.506;2023-01-06T16:37:55;101332.81;;;7.01;100.00
29315;BME280;16320;53.954;9.506;2023-01-06T16:41:00;101316.31;;;6.99;100.00
29315;BME280;16320;53.954;9.506;2023-01-06T16:44:07;101320.81;;;6.94;100.00
29315;BME280;16320;53.954;9.506;2023-01-06T16:47:12;101323.47;;;6.92;100.00
29315;BME280;16320;53.954;9.506;2023-01-06T16:53:37;101334.69;;;6.96;100.00
29315;BME280;16320;53.954;9.506;2023-01-06T16:56:43;101333.91;;;6.92;100.00
29315;BME280;16320;53.954;9.506;2023-01-06T16:59:47;101338.19;;;6.95;100.00
29315;BME280;16320;53.954;9.506;2023-01-06T17:02:52;101342.56;;;6.94;100.00
29315;BME280;16320;53.954;9.506;2023-01-06T17:05:57;101344.28;;;6.95;100.00
29315;BME280;16320;53.954;9.506;2023-01-06T17:09:12;101348.47;;;7.01;100.00
29315;BME280;16320;53.954;9.506;2023-01-06T17:12:18;101353.63;;;7.04;100.00
29315;BME280;16320;53.954;9.506;2023-01-06T17:15:41;101340.63;;;7.01;100.00
29315;BME280;16320;53.954;9.506;2023-01-06T17:18:53;101339.84;;;6.99;100.00
29315;BME280;16320;53.954;9.506;2023-01-06T17:22:28;101345.22;;;6.93;100.00
29315;BME280;16320;53.954;9.506;2023-01-06T17:25:33;101348.78;;;6.89;100.00
29315;BME280;16320;53.954;9.506;2023-01-06T17:28:38;101354.78;;;6.94;100.00
29315;BME280;16320;53.954;9.506;2023-01-06T17:31:46;101364.25;;;6.96;100.00
29315;BME280;16320;53.954;9.506;2023-01-06T17:34:52;101364.31;;;6.95;100.00
29315;BME280;16320;53.954;9.506;2023-01-06T17:37:59;101365.19;;;6.95;100.00
29315;BME280;16320;53.954;9.506;2023-01-06T17:41:08;101364.31;;;6.95;100.00
29315;BME280;16320;53.954;9.506;2023-01-06T17:44:17;101375.81;;;6.88;100.00
29315;BME280;16320;53.954;9.506;2023-01-06T17:50:34;101368.38;;;6.72;100.00
29315;BME280;16320;53.954;9.506;2023-01-06T17:53:39;101376.28;;;6.69;100.00
29315;BME280;16320;53.954;9.506;2023-01-06T17:57:15;101382.63;;;6.59;100.00
29315;BME280;16320;53.954;9.506;2023-01-06T18:00:33;101384.41;;;6.57;100.00
29315;BME280;16320;53.954;9.506;2023-01-06T18:03:40;101387.91;;;6.56;100.00
29315;BME280;16320;53.954;9.506;2023-01-06T18:06:45;101392.34;;;6.52;100.00